Time;durP1;ratioP1;P1;durP2;ratioP2;P2;SDS_P1;SDS_P2;PMS_P1;PMS_P2;Temp;Humidity;BMP_temperature;BMP_pressure;BME280_temperature;BME280_humidity;BME280_pressure;Samples;Min_cycle;Max_cycle;Signal;HPM_P1;HPM_P2
2022/05/25 00:02:05;;;;;;;5.00;1.87;;;12.70;99.90;;;;;;4953452;28;20732;-78
2022/05/25 00:04:33;;;;;;;7.40;2.60;;;12.70;99.90;;;;;;4948211;29;20224;-78
2022/05/25 00:07:00;;;;;;;4.33;1.80;;;12.60;99.90;;;;;;4948461;28;20229;-77
2022/05/25 00:09:28;;;;;;;5.00;1.47;;;12.60;99.90;;;;;;4948267;29;20205;-78
2022/05/25 00:11:55;;;;;;;3.63;1.10;;;12.60;99.90;;;;;;4947416;28;20205;-77
2022/05/25 00:14:22;;;;;;;4.20;1.40;;;12.60;99.90;;;;;;4955502;28;20539;-77
2022/05/25 00:16:49;;;;;;;5.97;1.50;;;12.60;99.90;;;;;;4967254;28;20609;-78
2022/05/25 00:22:07;;;;;;;7.43;1.57;;;12.70;99.90;;;;;;4931877;28;20244;-77
2022/05/25 00:24:33;;;;;;;4.83;1.60;;;12.70;99.90;;;;;;4948360;29;20205;-78
2022/05/25 00:27:00;;;;;;;4.47;1.83;;;12.60;99.90;;;;;;4955493;28;20212;-78
2022/05/25 00:29:27;;;;;;;7.53;1.30;;;12.60;99.90;;;;;;4966590;28;20200;-77
2022/05/25 00:31:54;;;;;;;4.37;1.97;;;12.60;99.90;;;;;;4947771;28;20221;-78
2022/05/25 00:34:21;;;;;;;7.50;1.27;;;12.70;99.90;;;;;;4948299;29;20232;-77
2022/05/25 00:36:47;;;;;;;2.83;1.13;;;12.70;99.90;;;;;;4960732;28;20208;-77
2022/05/25 00:39:16;;;;;;;5.20;1.10;;;12.60;99.90;;;;;;4966215;28;20682;-77
2022/05/25 00:41:42;;;;;;;5.73;2.03;;;12.60;99.90;;;;;;4964628;28;20297;-77
2022/05/25 00:44:09;;;;;;;2.80;1.10;;;12.60;99.90;;;;;;4947569;29;20248;-78
2022/05/25 00:46:38;;;;;;;6.20;1.30;;;12.60;99.90;;;;;;4947135;29;20189;-78
2022/05/25 00:49:07;;;;;;;3.43;1.70;;;12.60;99.90;;;;;;4947086;29;20205;-78
2022/05/25 00:51:39;;;;;;;2.30;1.30;;;12.60;99.90;;;;;;4947868;28;20213;-77
2022/05/25 00:54:10;;;;;;;1.70;0.97;;;12.60;99.90;;;;;;4947458;29;20220;-78
2022/05/25 00:56:41;;;;;;;5.87;1.27;;;12.60;99.90;;;;;;4947473;29;20273;-78
2022/05/25 00:59:11;;;;;;;2.60;1.00;;;12.60;99.90;;;;;;4947635;28;20209;-78
2022/05/25 01:01:38;;;;;;;2.20;1.30;;;12.60;99.90;;;;;;4946715;29;20202;-77
2022/05/25 01:04:06;;;;;;;3.43;1.13;;;12.60;99.90;;;;;;4947173;29;20213;-78
2022/05/25 01:06:55;;;;;;;4.17;1.20;;;12.50;99.90;;;;;;4959281;28;20274;-77
2022/05/25 01:09:35;;;;;;;3.27;1.30;;;12.60;99.90;;;;;;4966919;28;20202;-78
2022/05/25 01:12:18;;;;;;;4.73;1.13;;;12.60;99.90;;;;;;4966485;28;20200;-79
2022/05/25 01:15:00;;;;;;;2.27;0.80;;;12.60;99.90;;;;;;4955410;28;20866;-78
2022/05/25 01:17:39;;;;;;;2.33;1.07;;;12.60;99.90;;;;;;4947036;29;20232;-77
2022/05/25 01:20:14;;;;;;;4.47;2.10;;;12.60;99.90;;;;;;4946756;29;20823;-76
2022/05/25 01:23:18;;;;;;;4.73;1.50;;;12.60;99.90;;;;;;4946774;28;20228;-79
2022/05/25 01:26:08;;;;;;;4.13;1.27;;;12.60;99.90;;;;;;4965657;28;20212;-78
2022/05/25 01:28:50;;;;;;;5.77;1.17;;;12.60;99.90;;;;;;4965502;28;20192;-78
2022/05/25 01:31:23;;;;;;;7.63;1.50;;;12.60;99.90;;;;;;4965609;28;20623;-77
2022/05/25 01:33:55;;;;;;;4.57;1.40;;;12.60;99.90;;;;;;4966187;28;20844;-76
2022/05/25 01:36:28;;;;;;;3.63;1.40;;;12.60;99.90;;;;;;4965050;28;20208;-76
2022/05/25 01:39:02;;;;;;;5.90;1.70;;;12.60;99.90;;;;;;4950525;28;20573;-77
2022/05/25 01:41:39;;;;;;;5.30;1.50;;;12.60;99.90;;;;;;4946778;28;20193;-77
2022/05/25 01:44:09;;;;;;;9.60;1.83;;;12.50;99.90;;;;;;4945648;29;20193;-78
2022/05/25 01:46:42;;;;;;;4.40;2.00;;;12.50;99.90;;;;;;4963061;28;20306;-77
2022/05/25 01:49:13;;;;;;;6.53;1.97;;;12.50;99.90;;;;;;4964039;28;20597;-77
2022/05/25 01:51:43;;;;;;;3.87;2.10;;;12.50;99.90;;;;;;4964213;28;20207;-78
2022/05/25 01:54:14;;;;;;;6.00;1.60;;;12.40;99.90;;;;;;4964023;28;20641;-78
2022/05/25 01:56:47;;;;;;;4.47;1.80;;;12.40;99.90;;;;;;4960756;28;20260;-77
2022/05/25 01:59:17;;;;;;;9.53;2.20;;;12.40;99.90;;;;;;4946186;29;20202;-80
2022/05/25 02:04:19;;;;;;;6.17;1.70;;;12.40;99.90;;;;;;4945336;29;20201;-76
2022/05/25 02:04:41;;;;;;;5.57;1.87;;;12.40;99.90;;;;;;4944866;28;20360;-78
2022/05/25 02:07:30;;;;;;;8.23;2.97;;;12.40;99.90;;;;;;4945472;28;20213;-77
2022/05/25 02:10:17;;;;;;;4.90;1.87;;;12.40;99.90;;;;;;4944994;29;20201;-78
2022/05/25 02:12:59;;;;;;;5.67;1.67;;;12.40;99.90;;;;;;4950762;28;20255;-77
2022/05/25 02:15:34;;;;;;;6.17;1.97;;;12.40;99.90;;;;;;4964797;28;20216;-77
2022/05/25 02:18:09;;;;;;;8.70;1.93;;;12.40;99.90;;;;;;4948533;28;20197;-77
2022/05/25 02:20:43;;;;;;;5.70;1.67;;;12.40;99.90;;;;;;4945989;29;20197;-76
2022/05/25 02:23:17;;;;;;;3.20;1.23;;;12.40;99.90;;;;;;4946160;28;20236;-76
2022/05/25 02:25:49;;;;;;;4.87;1.37;;;12.40;99.90;;;;;;4944029;29;20210;-77
2022/05/25 02:28:23;;;;;;;5.27;1.13;;;12.40;99.90;;;;;;4945166;29;20244;-76
2022/05/25 02:30:54;;;;;;;4.17;1.70;;;12.40;99.90;;;;;;4946033;28;20283;-77
2022/05/25 02:33:27;;;;;;;4.87;1.30;;;12.40;99.90;;;;;;4944344;29;20220;-76
2022/05/25 02:35:56;;;;;;;3.80;1.47;;;12.40;99.90;;;;;;4945515;29;20225;-77
2022/05/25 02:38:24;;;;;;;3.87;1.17;;;12.40;99.90;;;;;;4944881;29;20212;-76
2022/05/25 02:40:51;;;;;;;5.33;0.90;;;12.40;99.90;;;;;;4945698;28;20208;-77
2022/05/25 02:43:17;;;;;;;5.97;1.53;;;12.40;99.90;;;;;;4945207;29;20269;-76
2022/05/25 02:45:46;;;;;;;2.90;1.20;;;12.40;99.90;;;;;;4943982;29;20201;-76
2022/05/25 02:48:12;;;;;;;6.27;1.57;;;12.40;99.90;;;;;;4925939;28;1089418;-76
2022/05/25 02:50:40;;;;;;;3.17;1.00;;;12.40;99.90;;;;;;4955521;28;20202;-76
2022/05/25 02:53:11;;;;;;;3.90;1.20;;;12.40;99.90;;;;;;4947832;28;20201;-76
2022/05/25 02:55:38;;;;;;;1.20;0.80;;;12.40;99.90;;;;;;4949476;29;20678;-77
2022/05/25 02:58:05;;;;;;;3.73;1.03;;;12.30;99.90;;;;;;4949512;29;20218;-76
2022/05/25 03:00:32;;;;;;;4.17;1.20;;;12.30;99.90;;;;;;4949837;28;20213;-76
2022/05/25 03:02:58;;;;;;;1.90;0.90;;;12.30;99.90;;;;;;4949853;29;20209;-77
2022/05/25 03:05:25;;;;;;;3.20;0.80;;;12.30;99.90;;;;;;4949364;29;20889;-76
2022/05/25 03:07:53;;;;;;;4.43;1.57;;;12.20;99.90;;;;;;4949556;28;20212;-76
2022/05/25 03:10:20;;;;;;;3.33;1.50;;;12.20;99.90;;;;;;4948966;29;20209;-76
2022/05/25 03:12:47;;;;;;;3.73;1.23;;;12.20;99.90;;;;;;4949644;29;20225;-77
2022/05/25 03:15:14;;;;;;;5.70;1.60;;;12.20;99.90;;;;;;4948568;29;20225;-76
2022/05/25 03:17:41;;;;;;;3.60;1.20;;;12.10;99.90;;;;;;4962804;28;20216;-76
2022/05/25 03:20:10;;;;;;;1.13;0.90;;;12.20;99.90;;;;;;4968745;28;20860;-76
2022/05/25 03:22:39;;;;;;;4.10;1.57;;;12.20;99.90;;;;;;4967391;28;20240;-77
2022/05/25 03:25:08;;;;;;;4.77;1.37;;;12.10;99.90;;;;;;4968349;28;20201;-76
2022/05/25 03:27:35;;;;;;;4.17;1.63;;;12.00;99.90;;;;;;4967588;28;20200;-77
2022/05/25 03:30:02;;;;;;;3.73;1.73;;;12.00;99.90;;;;;;4967462;28;20216;-77
2022/05/25 03:32:29;;;;;;;3.50;1.20;;;12.00;99.90;;;;;;4967714;28;20795;-77
2022/05/25 03:34:57;;;;;;;4.07;1.77;;;12.00;99.90;;;;;;4966935;28;20700;-77
2022/05/25 03:37:24;;;;;;;4.00;1.60;;;12.00;99.90;;;;;;4967142;28;20232;-78
2022/05/25 03:39:51;;;;;;;4.90;1.50;;;12.00;99.90;;;;;;4967915;28;20209;-78
2022/05/25 03:42:20;;;;;;;5.10;1.90;;;12.00;99.90;;;;;;4963869;28;20206;-77
2022/05/25 03:44:47;;;;;;;5.40;1.77;;;12.00;99.90;;;;;;4948716;29;20202;-77
2022/05/25 03:47:14;;;;;;;6.77;1.90;;;12.00;99.90;;;;;;4948417;29;20255;-78
2022/05/25 03:49:41;;;;;;;2.50;1.50;;;12.00;99.90;;;;;;4947700;29;20695;-77
2022/05/25 03:52:08;;;;;;;3.47;1.77;;;12.00;99.90;;;;;;4961076;28;20357;-77
2022/05/25 03:54:37;;;;;;;6.47;2.43;;;12.00;99.90;;;;;;4958961;28;20206;-77
2022/05/25 03:57:05;;;;;;;6.60;1.97;;;12.00;99.90;;;;;;4947478;29;20236;-77
2022/05/25 03:59:33;;;;;;;5.10;2.30;;;12.00;99.90;;;;;;4949082;28;20292;-77
2022/05/25 04:02:01;;;;;;;8.10;2.27;;;12.00;99.90;;;;;;4948144;29;20193;-76
2022/05/25 04:04:28;;;;;;;5.87;1.93;;;12.00;99.90;;;;;;4950353;28;20631;-78
2022/05/25 04:06:54;;;;;;;5.97;1.87;;;12.00;99.90;;;;;;4967571;28;20227;-79
2022/05/25 04:09:21;;;;;;;7.93;2.43;;;12.00;99.90;;;;;;4967198;28;20204;-77
2022/05/25 04:11:49;;;;;;;3.27;1.30;;;12.00;99.90;;;;;;4962280;28;20235;-78
2022/05/25 04:14:16;;;;;;;6.57;1.73;;;12.10;99.90;;;;;;4960950;28;20227;-77
2022/05/25 04:16:44;;;;;;;4.10;2.00;;;12.10;99.90;;;;;;4963624;28;20323;-78
2022/05/25 04:19:12;;;;;;;5.83;2.20;;;12.10;99.90;;;;;;4962248;28;20212;-76
2022/05/25 04:21:39;;;;;;;8.10;1.93;;;12.20;99.90;;;;;;4966861;28;20488;-77
2022/05/25 04:24:07;;;;;;;7.70;1.70;;;12.40;99.90;;;;;;4966774;28;20208;-77
2022/05/25 04:26:34;;;;;;;6.43;2.37;;;12.50;99.90;;;;;;4964074;28;20209;-78
2022/05/25 04:29:01;;;;;;;6.00;2.00;;;12.60;99.90;;;;;;4948461;29;20194;-76
2022/05/25 04:31:28;;;;;;;7.83;1.80;;;12.60;99.90;;;;;;4947743;28;20625;-76
2022/05/25 04:33:56;;;;;;;6.17;2.30;;;12.70;99.90;;;;;;4948160;29;20216;-76
2022/05/25 04:36:23;;;;;;;7.27;2.10;;;12.80;99.90;;;;;;4948045;29;20883;-77
2022/05/25 04:38:50;;;;;;;3.67;1.90;;;12.80;99.90;;;;;;4956003;28;20773;-77
2022/05/25 04:41:16;;;;;;;4.53;1.87;;;12.90;99.90;;;;;;4967112;28;20303;-76
2022/05/25 04:43:43;;;;;;;3.07;1.70;;;12.90;99.90;;;;;;4967399;28;20220;-76
2022/05/25 04:46:13;;;;;;;5.90;1.80;;;13.00;99.90;;;;;;4966706;28;20672;-77
2022/05/25 04:48:40;;;;;;;2.93;1.30;;;13.00;99.90;;;;;;4965461;28;20244;-77
2022/05/25 04:51:08;;;;;;;5.30;1.80;;;13.00;99.90;;;;;;4967974;28;20212;-75
2022/05/25 04:53:35;;;;;;;4.27;1.50;;;13.10;99.90;;;;;;4965742;28;20664;-76
2022/05/25 04:58:48;;;;;;;4.57;1.60;;;13.10;99.90;;;;;;4947852;29;20213;-77
2022/05/25 05:01:17;;;;;;;5.97;1.37;;;13.10;99.90;;;;;;4947508;29;20205;-76
2022/05/25 05:03:44;;;;;;;3.27;1.30;;;13.10;99.90;;;;;;4948146;28;20229;-76
2022/05/25 05:06:13;;;;;;;5.87;2.80;;;13.30;99.90;;;;;;4947852;29;20197;-77
2022/05/25 05:08:40;;;;;;;5.17;1.47;;;13.40;99.90;;;;;;4948569;28;20201;-77
2022/05/25 05:11:09;;;;;;;4.03;1.50;;;13.70;99.90;;;;;;4947635;29;20202;-78
2022/05/25 05:13:36;;;;;;;4.87;1.40;;;13.90;99.90;;;;;;4947186;29;20614;-77
2022/05/25 05:16:06;;;;;;;4.07;1.43;;;14.00;99.90;;;;;;4947003;28;20229;-76
2022/05/25 05:18:33;;;;;;;5.10;1.87;;;14.30;99.90;;;;;;4947669;28;20212;-76
2022/05/25 05:20:59;;;;;;;5.80;1.53;;;14.80;99.90;;;;;;4947826;29;20205;-76
2022/05/25 05:23:28;;;;;;;5.97;1.30;;;15.20;99.90;;;;;;4951600;28;20228;-78
2022/05/25 05:25:55;;;;;;;2.70;1.20;;;15.70;99.90;;;;;;4973888;28;20204;-77
2022/05/25 05:28:25;;;;;;;4.20;1.30;;;15.90;99.90;;;;;;4985653;28;20208;-78
2022/05/25 05:30:54;;;;;;;2.33;1.17;;;16.10;99.90;;;;;;4963977;29;20209;-78
2022/05/25 05:33:21;;;;;;;6.23;1.00;;;16.20;99.90;;;;;;4961685;29;20193;-78
2022/05/25 05:35:50;;;;;;;6.93;1.48;;;16.40;99.90;;;;;;4977708;28;21000;-78
2022/05/25 05:38:19;;;;;;;4.55;1.67;;;16.50;99.90;;;;;;4971171;28;20196;-79
2022/05/25 05:40:47;;;;;;;4.85;1.52;;;16.60;99.90;;;;;;4965862;28;20204;-78
2022/05/25 05:43:14;;;;;;;4.50;1.90;;;16.60;99.90;;;;;;4965593;28;20211;-78
2022/05/25 05:45:44;;;;;;;4.90;1.20;;;16.50;99.90;;;;;;4965781;28;20204;-78
2022/05/25 05:48:14;;;;;;;3.85;1.02;;;16.60;99.90;;;;;;4975127;23;20247;-77
2022/05/25 05:50:43;;;;;;;4.70;1.63;;;16.70;99.90;;;;;;4984967;28;20208;-78
2022/05/25 05:53:13;;;;;;;6.88;1.55;;;16.70;99.90;;;;;;4985273;28;20208;-79
2022/05/25 05:55:42;;;;;;;5.63;1.38;;;16.90;99.90;;;;;;4983624;28;20227;-80
2022/05/25 05:58:10;;;;;;;4.50;1.23;;;16.80;99.90;;;;;;4984880;28;20235;-77
2022/05/25 06:00:37;;;;;;;5.40;1.60;;;16.90;99.90;;;;;;4984923;28;20632;-78
2022/05/25 06:03:04;;;;;;;6.40;1.63;;;17.20;99.90;;;;;;4984701;28;20238;-78
2022/05/25 06:05:32;;;;;;;3.85;1.52;;;17.30;99.90;;;;;;4974731;28;20212;-78
2022/05/25 06:08:07;;;;;;;5.32;1.30;;;17.50;99.90;;;;;;4965422;28;20200;-77
2022/05/25 06:10:34;;;;;;;6.68;1.65;;;17.90;99.90;;;;;;4965475;28;20389;-76
2022/05/25 06:13:01;;;;;;;5.45;1.65;;;18.20;99.90;;;;;;4966894;28;20299;-77
2022/05/25 06:20:57;;;;;;;12.82;2.17;;;19.60;99.90;;;;;;4972095;28;20318;-77
2022/05/25 06:23:24;;;;;;;5.32;1.90;;;19.70;99.90;;;;;;4985065;28;20227;-77
2022/05/25 06:25:51;;;;;;;6.18;1.95;;;19.70;99.90;;;;;;4983925;28;20295;-77
2022/05/25 06:28:18;;;;;;;6.30;1.70;;;19.70;99.90;;;;;;4968100;28;20208;-77
2022/05/25 06:30:46;;;;;;;8.10;2.47;;;19.70;99.90;;;;;;4978544;28;20925;-78
2022/05/25 06:33:13;;;;;;;10.85;2.33;;;19.40;99.90;;;;;;4986626;28;20219;-77
2022/05/25 06:35:40;;;;;;;5.88;2.28;;;19.20;99.90;;;;;;4974840;28;20239;-79
2022/05/25 06:38:07;;;;;;;4.70;1.90;;;18.90;99.90;;;;;;4973714;28;20231;-77
2022/05/25 06:40:34;;;;;;;11.35;2.60;;;18.70;99.90;;;;;;4988163;28;20200;-78
2022/05/25 06:43:01;;;;;;;6.95;2.55;;;18.50;99.90;;;;;;4987411;28;20199;-78
2022/05/25 06:45:27;;;;;;;10.40;3.03;;;18.10;99.90;;;;;;4987775;28;20508;-77
2022/05/25 06:47:55;;;;;;;7.85;3.33;;;17.90;99.90;;;;;;4987683;28;20208;-78
2022/05/25 06:50:22;;;;;;;15.18;4.53;;;17.60;99.90;;;;;;4982630;28;20224;-78
2022/05/25 06:52:51;;;;;;;9.20;4.20;;;17.70;99.90;;;;;;4968166;28;20196;-77
2022/05/25 06:55:18;;;;;;;8.38;3.17;;;18.00;99.90;;;;;;4968610;28;20612;-79
2022/05/25 06:57:44;;;;;;;6.18;3.10;;;18.30;99.90;;;;;;4976970;28;20230;-76
2022/05/25 07:00:12;;;;;;;10.25;3.63;;;18.50;99.90;;;;;;4987623;28;20592;-79
2022/05/25 07:02:39;;;;;;;11.45;4.07;;;19.10;99.90;;;;;;4988007;28;20680;-78
2022/05/25 07:05:08;;;;;;;8.95;3.38;;;19.30;99.90;;;;;;4988301;28;20258;-77
2022/05/25 07:07:37;;;;;;;7.30;3.13;;;19.30;99.90;;;;;;4987014;28;20290;-79
2022/05/25 07:10:05;;;;;;;8.52;3.85;;;19.00;99.90;;;;;;4987982;28;20211;-77
2022/05/25 07:12:32;;;;;;;11.75;3.90;;;18.80;99.90;;;;;;4987660;28;20229;-79
2022/05/25 07:14:59;;;;;;;13.02;5.00;;;18.70;99.90;;;;;;4987210;28;20643;-78
2022/05/25 07:17:26;;;;;;;10.30;4.10;;;18.30;99.90;;;;;;4987532;28;20227;-78
2022/05/25 07:19:53;;;;;;;7.30;3.78;;;18.10;99.90;;;;;;4987417;28;20219;-78
2022/05/25 07:22:21;;;;;;;10.93;3.45;;;18.40;99.90;;;;;;4987280;28;20257;-78
2022/05/25 07:24:48;;;;;;;9.60;3.53;;;18.70;99.90;;;;;;4987982;28;20214;-79
2022/05/25 07:27:15;;;;;;;7.28;3.03;;;18.80;99.90;;;;;;4987363;28;20778;-77
2022/05/25 07:29:41;;;;;;;6.45;2.80;;;18.90;99.90;;;;;;4985338;28;20203;-78
2022/05/25 07:32:11;;;;;;;7.55;3.22;;;18.90;99.90;;;;;;4967996;28;20201;-78
2022/05/25 07:34:43;;;;;;;11.25;3.30;;;18.70;99.90;;;;;;4967783;28;20627;-79
2022/05/25 07:37:12;;;;;;;7.72;3.10;;;18.90;99.90;;;;;;4968652;28;20333;-78
2022/05/25 07:39:46;;;;;;;11.57;3.40;;;19.10;99.90;;;;;;4968740;28;20204;-78
2022/05/25 07:42:14;;;;;;;12.80;3.90;;;19.00;99.90;;;;;;4968005;28;20601;-77
2022/05/25 07:44:44;;;;;;;8.65;4.00;;;18.70;99.90;;;;;;4968312;28;20490;-78
2022/05/25 07:47:12;;;;;;;9.57;4.10;;;18.40;99.90;;;;;;4968294;28;20204;-78
2022/05/25 07:49:39;;;;;;;10.57;4.40;;;18.30;99.90;;;;;;4969050;28;20244;-78
2022/05/25 07:52:07;;;;;;;8.52;3.58;;;18.30;99.90;;;;;;4987533;28;20223;-78
2022/05/25 07:54:34;;;;;;;9.68;4.43;;;18.70;99.90;;;;;;4974354;28;20208;-79
2022/05/25 07:57:02;;;;;;;12.60;4.10;;;18.90;99.90;;;;;;4967757;28;20239;-77
2022/05/25 07:59:29;;;;;;;8.70;3.65;;;19.20;99.90;;;;;;4968061;28;20697;-77
2022/05/25 08:07:31;;;;;;;10.90;4.05;;;19.60;99.90;;;;;;4973586;28;20199;-78
2022/05/25 08:10:04;;;;;;;14.52;4.00;;;19.80;99.90;;;;;;4986207;28;20208;-79
2022/05/25 08:12:32;;;;;;;10.02;2.80;;;19.70;99.90;;;;;;4987715;28;20203;-78
2022/05/25 08:15:00;;;;;;;6.25;2.50;;;19.50;99.90;;;;;;4976062;28;20221;-80
2022/05/25 08:17:27;;;;;;;9.45;2.90;;;19.40;99.90;;;;;;4967406;28;20235;-79
2022/05/25 08:19:54;;;;;;;15.10;3.05;;;19.40;99.90;;;;;;4981338;28;20212;-77
2022/05/25 08:22:21;;;;;;;11.77;2.80;;;19.40;99.90;;;;;;4980711;28;20334;-77
2022/05/25 08:24:48;;;;;;;9.98;2.58;;;19.20;99.90;;;;;;4967465;28;20219;-78
2022/05/25 08:27:14;;;;;;;10.18;2.67;;;19.00;99.90;;;;;;4981689;28;20203;-77
2022/05/25 08:29:43;;;;;;;11.45;3.28;;;19.30;99.90;;;;;;4987405;28;20215;-76
2022/05/25 08:32:10;;;;;;;10.15;2.50;;;19.40;99.90;;;;;;4985796;28;20204;-78
2022/05/25 08:34:37;;;;;;;8.10;2.33;;;19.80;99.90;;;;;;4977403;28;20209;-77
2022/05/25 08:37:05;;;;;;;11.60;2.85;;;20.00;99.90;;;;;;4967293;28;20227;-79
2022/05/25 08:39:31;;;;;;;10.98;2.20;;;20.30;99.90;;;;;;4967729;28;20216;-79
2022/05/25 08:42:05;;;;;;;9.38;2.25;;;20.10;99.90;;;;;;4967298;28;20643;-77
2022/05/25 08:44:33;;;;;;;10.45;2.40;;;20.20;99.90;;;;;;4966974;28;20819;-80
2022/05/25 08:47:04;;;;;;;6.80;2.40;;;20.20;99.90;;;;;;4966852;28;20203;-77
2022/05/25 08:49:33;;;;;;;5.95;2.33;;;20.20;99.90;;;;;;4966862;28;20236;-78
2022/05/25 08:52:04;;;;;;;10.68;2.97;;;20.20;99.90;;;;;;4966413;28;20208;-79
2022/05/25 08:54:35;;;;;;;9.93;2.78;;;20.60;99.90;;;;;;4966886;28;20251;-80
2022/05/25 08:57:05;;;;;;;7.13;2.25;;;20.60;99.90;;;;;;4966882;28;20232;-78
2022/05/25 08:59:36;;;;;;;6.90;2.10;;;20.50;99.90;;;;;;4966186;28;20212;-78
2022/05/25 09:02:15;;;;;;;8.30;2.05;;;20.50;99.90;;;;;;4967352;28;20223;-78
2022/05/25 09:04:49;;;;;;;8.90;2.17;;;20.80;99.90;;;;;;4967270;28;20295;-79
2022/05/25 09:07:24;;;;;;;6.18;1.80;;;21.00;99.90;;;;;;4965852;28;20201;-78
2022/05/25 09:09:52;;;;;;;4.35;1.50;;;21.40;99.90;;;;;;4966750;28;20197;-80
2022/05/25 09:12:24;;;;;;;4.97;1.45;;;21.50;99.90;;;;;;4966089;28;20226;-79
2022/05/25 09:14:56;;;;;;;4.75;1.45;;;21.50;99.90;;;;;;4966466;28;20192;-78
2022/05/25 09:17:28;;;;;;;7.43;2.22;;;21.40;99.90;;;;;;4967115;28;20228;-78
2022/05/25 09:19:55;;;;;;;6.68;1.77;;;21.30;99.90;;;;;;4966125;28;20197;-79
2022/05/25 09:22:25;;;;;;;6.65;1.58;;;21.10;99.90;;;;;;4966403;28;20228;-78
2022/05/25 09:24:53;;;;;;;6.50;1.60;;;21.20;99.90;;;;;;4966610;28;20319;-80
2022/05/25 09:27:23;;;;;;;5.53;1.38;;;21.40;99.90;;;;;;4966198;28;20212;-80
2022/05/25 09:29:51;;;;;;;5.15;1.40;;;21.70;99.90;;;;;;4966669;28;20858;-80
2022/05/25 09:32:39;;;;;;;4.53;1.30;;;22.10;99.90;;;;;;4966543;28;20260;-81
2022/05/25 09:35:11;;;;;;;4.32;1.60;;;22.20;99.90;;;;;;4965910;28;20208;-78
2022/05/25 09:37:44;;;;;;;4.32;1.17;;;22.10;99.90;;;;;;4966360;28;20216;-80
2022/05/25 09:40:18;;;;;;;3.72;1.15;;;22.00;99.90;;;;;;4966162;28;20211;-80
2022/05/25 09:42:50;;;;;;;7.22;1.60;;;21.80;99.90;;;;;;4964890;28;20193;-79
2022/05/25 09:45:17;;;;;;;7.60;1.35;;;21.60;99.90;;;;;;4966176;28;20292;-80
2022/05/25 09:47:48;;;;;;;8.05;1.48;;;21.60;99.90;;;;;;4965687;28;20209;-77
2022/05/25 09:50:25;;;;;;;4.40;1.08;;;21.60;99.90;;;;;;4984498;28;20251;-81
2022/05/25 09:52:53;;;;;;;6.57;1.17;;;21.70;99.90;;;;;;4985299;28;20199;-79
2022/05/25 09:55:24;;;;;;;6.45;1.25;;;22.00;99.90;;;;;;4984307;28;20208;-80
2022/05/25 09:57:59;;;;;;;7.75;1.30;;;21.90;99.90;;;;;;4984684;28;20254;-80
2022/05/25 10:00:41;;;;;;;3.97;0.88;;;22.00;99.90;;;;;;4985057;28;20642;-78
2022/05/25 10:03:13;;;;;;;5.75;1.77;;;21.90;99.90;;;;;;4977693;28;20218;-79
2022/05/25 10:05:55;;;;;;;9.88;1.38;;;22.10;99.90;;;;;;4985318;28;20212;-78
2022/05/25 10:08:28;;;;;;;4.95;1.13;;;22.30;99.90;;;;;;4985140;28;20638;-79
2022/05/25 10:10:59;;;;;;;7.30;1.35;;;22.50;99.90;;;;;;4983721;28;20211;-79
2022/05/25 10:13:29;;;;;;;6.35;1.48;;;22.80;99.90;;;;;;4985128;28;20238;-79
2022/05/25 10:15:58;;;;;;;4.35;1.00;;;22.90;99.90;;;;;;4984010;28;20310;-79
2022/05/25 10:18:39;;;;;;;6.22;1.20;;;22.90;99.90;;;;;;4985555;28;20282;-79
2022/05/25 10:21:11;;;;;;;4.47;1.70;;;22.30;99.90;;;;;;4984980;28;20200;-80
2022/05/25 10:23:43;;;;;;;2.65;1.10;;;22.40;99.90;;;;;;4981141;28;20201;-79
2022/05/25 10:26:13;;;;;;;4.30;1.55;;;22.30;99.90;;;;;;4965582;28;20200;-78
2022/05/25 10:28:48;;;;;;;6.13;1.38;;;22.40;99.90;;;;;;4965242;28;20263;-78
2022/05/25 10:36:58;;;;;;;7.55;1.50;;;22.40;99.90;;;;;;4984073;28;20273;-78
2022/05/25 10:39:34;;;;;;;6.30;2.38;;;22.50;99.90;;;;;;4984526;28;20214;-79
2022/05/25 10:42:05;;;;;;;4.97;1.50;;;22.70;99.90;;;;;;4983978;28;20584;-77
2022/05/25 10:44:39;;;;;;;4.55;1.85;;;22.80;99.90;;;;;;4984714;28;20263;-78
2022/05/25 10:47:27;;;;;;;5.55;1.30;;;22.60;99.90;;;;;;4979873;28;20206;-78
2022/05/25 10:49:55;;;;;;;3.03;1.10;;;22.50;99.90;;;;;;4965745;28;20268;-79
2022/05/25 10:52:28;;;;;;;8.23;2.10;;;22.20;99.90;;;;;;4965098;28;20287;-80
2022/05/25 10:54:56;;;;;;;2.75;1.20;;;22.10;99.90;;;;;;4981704;28;20204;-79
2022/05/25 10:58:05;;;;;;;4.65;1.30;;;22.30;99.90;;;;;;4985242;28;20291;-80
2022/05/25 11:00:44;;;;;;;5.55;1.63;;;22.30;99.90;;;;;;4985588;28;20204;-80
2022/05/25 11:03:43;;;;;;;10.43;2.00;;;22.50;99.90;;;;;;4973844;28;20200;-80
2022/05/25 11:06:31;;;;;;;5.72;1.20;;;22.50;99.90;;;;;;4970467;28;20226;-80
2022/05/25 11:09:13;;;;;;;7.65;1.63;;;22.50;99.90;;;;;;4985625;28;20212;-79
2022/05/25 11:11:47;;;;;;;4.05;1.60;;;22.70;99.90;;;;;;4985407;28;20478;-80
2022/05/25 11:14:32;;;;;;;7.55;1.42;;;22.80;99.90;;;;;;4989321;28;20200;-81
2022/05/25 11:17:06;;;;;;;2.88;1.23;;;22.90;99.90;;;;;;4990866;28;20216;-81
2022/05/25 11:19:56;;;;;;;5.07;1.90;;;22.80;99.90;;;;;;4990201;28;20195;-82
2022/05/25 11:22:35;;;;;;;5.05;1.48;;;22.60;99.90;;;;;;4998193;28;20228;-80
2022/05/25 11:25:16;;;;;;;5.82;1.50;;;22.30;99.90;;;;;;5007627;28;20207;-78
2022/05/25 11:27:58;;;;;;;5.50;1.80;;;22.30;99.90;;;;;;5005077;28;20223;-79
2022/05/25 11:30:31;;;;;;;6.22;1.70;;;22.20;99.90;;;;;;4997098;28;20216;-81
2022/05/25 11:33:13;;;;;;;7.53;2.10;;;22.60;99.90;;;;;;4993678;28;20290;-79
2022/05/25 11:35:51;;;;;;;9.32;1.83;;;22.50;99.90;;;;;;4975958;28;20323;-81
2022/05/25 11:38:47;;;;;;;8.27;1.90;;;22.60;99.90;;;;;;4971289;28;20259;-79
2022/05/25 11:41:28;;;;;;;6.35;1.50;;;22.70;99.90;;;;;;4967975;28;20592;-81
2022/05/25 11:44:29;;;;;;;7.07;2.05;;;22.70;99.90;;;;;;4968557;28;20197;-79
2022/05/25 11:47:02;;;;;;;5.43;1.60;;;22.80;99.90;;;;;;4967867;28;20213;-80
2022/05/25 11:49:53;;;;;;;5.03;1.23;;;22.80;99.90;;;;;;4967955;28;20566;-80
2022/05/25 11:52:46;;;;;;;5.65;1.70;;;22.70;99.90;;;;;;4968228;28;20219;-80
2022/05/25 11:55:21;;;;;;;4.72;1.50;;;22.50;99.90;;;;;;4972693;28;20208;-79
2022/05/25 11:58:01;;;;;;;6.60;2.00;;;22.30;99.90;;;;;;4987730;28;20251;-79
2022/05/25 12:00:40;;;;;;;4.40;1.50;;;21.90;99.90;;;;;;4987736;28;20295;-77
2022/05/25 12:03:42;;;;;;;6.72;1.55;;;21.60;99.90;;;;;;4981052;28;20204;-78
2022/05/25 12:06:25;;;;;;;3.15;1.30;;;21.50;99.90;;;;;;4968382;28;20188;-80
2022/05/25 12:09:07;;;;;;;5.75;1.58;;;21.60;99.90;;;;;;4967696;28;20203;-81
2022/05/25 12:11:41;;;;;;;6.00;2.05;;;21.50;99.90;;;;;;4968876;28;20204;-79
2022/05/25 12:14:41;;;;;;;6.45;2.10;;;21.40;99.90;;;;;;4968577;28;20200;-78
2022/05/25 12:17:27;;;;;;;3.95;1.40;;;21.20;99.90;;;;;;4967637;28;20224;-79
2022/05/25 12:19:56;;;;;;;7.32;1.75;;;21.30;99.90;;;;;;4983228;28;20215;-81
2022/05/25 12:22:32;;;;;;;5.82;1.42;;;21.40;99.90;;;;;;4980504;28;20229;-78
2022/05/25 12:25:04;;;;;;;8.50;1.88;;;21.50;99.90;;;;;;4966532;28;20201;-80
2022/05/25 12:27:37;;;;;;;9.70;1.88;;;21.50;99.90;;;;;;4968942;28;20197;-80
2022/05/25 12:30:09;;;;;;;5.18;1.70;;;21.30;99.90;;;;;;4975024;28;20212;-81
2022/05/25 12:32:38;;;;;;;8.38;1.50;;;21.20;99.90;;;;;;4987118;28;20195;-78
2022/05/25 12:35:08;;;;;;;5.95;2.38;;;21.00;99.90;;;;;;4986165;28;20203;-79
2022/05/25 12:37:37;;;;;;;13.63;2.17;;;20.90;99.90;;;;;;4972149;28;20235;-81
2022/05/25 12:40:05;;;;;;;4.70;1.83;;;20.80;99.90;;;;;;4966756;28;20201;-79
2022/05/25 12:42:39;;;;;;;7.32;2.00;;;20.70;99.90;;;;;;4976131;28;20214;-78
2022/05/25 12:50:50;;;;;;;6.75;1.65;;;20.30;99.90;;;;;;4968809;28;20347;-79
2022/05/25 12:53:32;;;;;;;7.15;2.05;;;20.10;99.90;;;;;;4967124;28;20202;-79
2022/05/25 12:56:01;;;;;;;10.02;2.03;;;20.10;99.90;;;;;;4966675;28;20780;-78
2022/05/25 12:58:36;;;;;;;11.98;3.00;;;20.00;99.90;;;;;;4980784;28;20228;-79
2022/05/25 13:01:07;;;;;;;6.15;2.13;;;20.00;99.90;;;;;;4986255;28;20219;-80
2022/05/25 13:04:02;;;;;;;8.05;2.20;;;20.00;99.90;;;;;;4986143;28;20207;-81
2022/05/25 13:07:10;;;;;;;9.27;2.70;;;20.10;99.90;;;;;;4977490;28;20208;-81
2022/05/25 13:09:42;;;;;;;10.23;2.20;;;20.20;99.90;;;;;;4966939;28;20208;-78
2022/05/25 13:12:48;;;;;;;18.85;3.15;;;20.00;99.90;;;;;;4965808;28;20620;-77
2022/05/25 13:15:43;;;;;;;9.40;2.40;;;20.00;99.90;;;;;;4981091;28;20211;-80
2022/05/25 13:18:44;;;;;;;10.35;2.55;;;20.00;99.90;;;;;;4986196;28;20278;-80
2022/05/25 13:21:32;;;;;;;11.10;2.05;;;20.00;99.90;;;;;;4966881;28;20219;-82
2022/05/25 13:24:33;;;;;;;11.63;2.67;;;19.90;99.90;;;;;;4967634;28;20291;-79
2022/05/25 13:27:30;;;;;;;14.27;3.17;;;19.90;99.90;;;;;;4985695;28;20294;-82
2022/05/25 13:30:06;;;;;;;9.52;2.80;;;20.00;99.90;;;;;;4967577;28;20204;-80
2022/05/25 13:32:40;;;;;;;10.73;2.58;;;20.10;99.90;;;;;;4966197;28;20222;-80
2022/05/25 13:35:37;;;;;;;9.38;2.60;;;19.90;99.90;;;;;;4967264;28;20215;-80
2022/05/25 13:38:16;;;;;;;8.50;2.22;;;19.70;99.90;;;;;;4966460;28;20264;-78
2022/05/25 13:40:46;;;;;;;10.98;3.40;;;19.70;99.90;;;;;;4966161;28;20232;-78